Wildwood, Missouri
Current Conditions -  °F | °C
As of 11:54 AM on Thursday 30 Oct 2014 (Local Time) from KSUS Reporting Station
Broken Clouds Broken Clouds  
Wind Chill: 55°   Ceiling: 25000
Heat Index: 55°   Visibility: 10mi
Dew Point: 38°   Wind: 5mph
Humidity: 53%   Direction: 160°SSE
Pressure: 30.09"   Gusts: NA
Location:  38.6038°N, 90.5556°W
Report Text: KSUS 301654Z 16004KT 10SM SCT110 BKN250 13/03 A3009 RMK AO2 SLP193 T01280033
Loading
Personal Weather Stations






























Interactive Weather Map
Tropical Storm Tracking
New forecast layout! Learn more

10-Day Weather Forecast

Advertisements
Track Severe Weather on mobile